Airdrie Aerodrome

CEF4 · 艾伯塔, 加拿大

2022年10月5日

时间 代码 天气 温度 能见度 天花板 METAR/SPECI
17:00
V
17 °C 15 mi - 110° 110° 11 - 17 kt METAR CYYC 052300Z 11011G17KT 15SM FEW100 17/02 A3028 RMK AC1 SLP271 DENSITY ALT 4400FT
16:00
V
18 °C 15 mi - 110° 110° 10 - 17 kt METAR CYYC 052200Z 11010G17KT 15SM FEW200 18/03 A3026 RMK CI1 SLP263 DENSITY ALT 4400FT
15:00
V
18 °C 12 mi - 130° 130° 9 - 16 kt METAR CYYC 052100Z 13009G16KT 12SM FEW170 FEW200 18/03 A3025 RMK AC1CI1 AC TR SLP261 DENSITY ALT 4400FT
14:00
V
17 °C 12 mi - 140° 140° 10 kt METAR CYYC 052000Z 14010KT 100V160 12SM FEW170 SCT200 17/02 A3025 RMK AC2CI1 SLP259 DENSITY ALT 4300FT
13:00
V
15 °C 12 mi 22.000 ft 130° 130° 12 kt METAR CYYC 051900Z 13012KT 12SM FEW090 SCT190 BKN220 15/03 A3024 RMK AC1AC3CI4 AC TR SLP255 DENSITY ALT 4200FT
12:00
V
16 °C 10 mi 22.000 ft 140° 140° 9 kt METAR CYYC 051800Z 14009KT 100V160 10SM FEW090 FEW160 BKN220 16/03 A3025 RMK AC1AC2CI4 AC TR CC ASOCTD SLP256 DENSITY ALT 4200FT
11:00
V
13 °C 8 mi 22.000 ft 100° 100° 5 kt METAR CYYC 051700Z 10005KT 090V150 8SM FEW090 FEW160 BKN220 13/02 A3025 RMK AC1AC2CI4 AC TR BR SLP259 DENSITY ALT 3900FT
10:00
V
10 °C 6 mi 22.000 ft Var 000° 0 kt METAR CYYC 051600Z 00000KT 6SM BR FEW090 BKN220 10/03 A3024 RMK AC1CI7 AC TR SLP258
09:00
V
6 °C 6 mi 22.000 ft 320° 320° 4 kt METAR CYYC 051500Z 32004KT 320V040 6SM BR FEW090 BKN220 06/01 A3023 RMK AC1CI6 SLP259
08:00
V
4 °C 7 mi 22.000 ft 060° 060° 4 kt METAR CYYC 051400Z 06004KT 7SM FEW090 BKN220 04/00 A3022 RMK AC2CI4 BR SLP256
07:00
V
5 °C 9 mi 24.000 ft 340° 340° 2 kt METAR CYYC 051300Z 34002KT 9SM BKN240 05/01 A3022 RMK CI5 SLP251
06:00
V
6 °C 9 mi 25.000 ft Var Var 2 kt METAR CYYC 051200Z VRB02KT 9SM BKN250 06/01 A3022 RMK CI5 SLP245
05:00
V
6 °C 9 mi - Var 000° 0 kt METAR CYYC 051100Z 00000KT 9SM FEW220 06/01 A3021 RMK CI2 SLP240
04:00
V
7 °C 9 mi 22.000 ft 020° 020° 5 kt METAR CYYC 051000Z 02005KT 9SM BKN220 07/02 A3022 RMK CI5 SLP243
03:00
V
7 °C 9 mi - Var 000° 0 kt METAR CYYC 050900Z 00000KT 9SM SCT220 07/02 A3022 RMK CI3 SLP243
02:00
V
9 °C 12 mi 23.000 ft 330° 330° 3 kt METAR CYYC 050800Z 33003KT 12SM SCT093 BKN230 09/02 A3022 RMK AC3CI2 SLP241
01:00
V
11 °C 12 mi - 320° 320° 3 kt METAR CYYC 050700Z 32003KT 12SM FEW094 SCT220 11/03 A3022 RMK AC2CI2 SLP237 DENSITY ALT 3700FT
00:00
V
12 °C 15 mi 25.000 ft 360° 360° 5 kt METAR CYYC 050600Z 36005KT 15SM SCT093 BKN250 12/04 A3020 RMK AC3CI2 SLP233 DENSITY ALT 3800FT

2022年10月4日

时间 代码 天气 温度 能见度 天花板 METAR/SPECI
23:00
V
12 °C 15 mi - 020° 020° 5 kt METAR CYYC 050500Z 02005KT 15SM SCT260 12/04 A3019 RMK CI3 SLP229 DENSITY ALT 3900FT
22:00
V
14 °C 15 mi - 060° 060° 5 kt METAR CYYC 050400Z 06005KT 15SM FEW250 14/04 A3017 RMK CI2 SLP225 DENSITY ALT 4100FT
21:00
V
15 °C 15 mi - 090° 090° 6 kt METAR CYYC 050300Z 09006KT 15SM SCT260 15/05 A3016 RMK CI3 SLP226 DENSITY ALT 4200FT
20:00
V
17 °C 15 mi 26.000 ft 090° 090° 7 kt METAR CYYC 050200Z 09007KT 15SM BKN260 17/06 A3014 RMK CI5 SLP218 DENSITY ALT 4400FT
19:00
V
18 °C 15 mi 30.000 ft 100° 100° 7 kt METAR CYYC 050100Z 10007KT 15SM OVC300 18/06 A3013 RMK CI8 SLP214 DENSITY ALT 4600FT
18:00
V
21 °C 15 mi 30.000 ft 090° 090° 9 kt METAR CYYC 050000Z 09009KT 15SM OVC300 21/05 A3012 RMK CI8 SLP204 DENSITY ALT 4900FT
17:00
V
22 °C 15 mi 30.000 ft 060° 060° 6 kt METAR CYYC 042300Z 06006KT 15SM OVC300 22/05 A3012 RMK CI8 SLP205 DENSITY ALT 5100FT
16:00
V
23 °C 15 mi 30.000 ft 040° 040° 5 kt METAR CYYC 042200Z 04005KT 360V100 15SM BKN300 23/06 A3012 RMK CI6 SLP206 DENSITY ALT 5100FT
15:00
V
23 °C 15 mi 30.000 ft 070° 070° 7 kt METAR CYYC 042100Z 07007KT 010V090 15SM BKN300 23/06 A3012 RMK CI6 SLP205 DENSITY ALT 5200FT
14:00
V
23 °C 15 mi - 040° 040° 6 kt METAR CYYC 042000Z 04006KT 020V080 15SM FEW100 SCT300 23/06 A3012 RMK AC1CI3 AC TR SLP206 DENSITY ALT 5100FT
13:00
V
22 °C 15 mi - 020° 020° 9 kt METAR CYYC 041900Z 02009KT 15SM FEW300 22/07 A3013 RMK CI2 SLP206 DENSITY ALT 5000FT
12:00
V
21 °C 15 mi - 010° 010° 10 kt METAR CYYC 041800Z 01010KT 15SM FEW300 21/07 A3013 RMK CI1 SLP207 DENSITY ALT 4900FT
11:00
V
19 °C 15 mi - 340° 340° 11 kt METAR CYYC 041700Z 34011KT 15SM FEW300 19/07 A3013 RMK CI1 SLP206 DENSITY ALT 4700FT
10:00
V
16 °C 40 mi - 340° 340° 3 kt METAR CYYC 041600Z 34003KT 280V360 40SM FEW300 16/05 A3013 RMK CI2 SLP208 DENSITY ALT 4400FT
09:00
V
11 °C 40 mi - Var Var 2 kt METAR CYYC 041500Z VRB02KT 40SM FEW300 11/05 A3012 RMK CI1 CONTRAILS SLP209 DENSITY ALT 3800FT
08:00
V
10 °C 40 mi - Var 000° 0 kt METAR CYYC 041400Z 00000KT 40SM FEW190 10/03 A3010 RMK AC1 AC TR SLP204 DENSITY ALT 3700FT
07:00
V
8 °C 15 mi - Var 000° 0 kt METAR CYYC 041300Z 00000KT 15SM SKC 08/03 A3009 RMK SLP196
06:00
V
10 °C 15 mi - 350° 350° 3 kt METAR CYYC 041200Z 35003KT 15SM SKC 10/03 A3008 RMK SLP191 DENSITY ALT 3700FT
05:00
V
8 °C 15 mi - 180° 180° 3 kt METAR CYYC 041100Z 18003KT 15SM SKC 08/04 A3007 RMK SLP189
04:00
V
8 °C 14 mi - 200° 200° 3 kt METAR CYYC 041000Z 20003KT 14SM SKC 08/04 A3007 RMK SLP190
03:00
V
9 °C 15 mi - Var 000° 0 kt METAR CYYC 040900Z 00000KT 15SM SKC 09/04 A3007 RMK SLP189 DENSITY ALT 3700FT
02:00
V
9 °C 15 mi - Var Var 2 kt METAR CYYC 040800Z VRB02KT 15SM SKC 09/03 A3008 RMK SLP192
01:00
V
10 °C 15 mi - 310° 310° 3 kt METAR CYYC 040700Z 31003KT 15SM SKC 10/04 A3008 RMK SLP194 DENSITY ALT 3700FT
00:00
V
12 °C 15 mi - Var 000° 0 kt METAR CYYC 040600Z 00000KT 15SM SKC 12/05 A3008 RMK SLP194 DENSITY ALT 4000FT

2022年10月3日

时间 代码 天气 温度 能见度 天花板 METAR/SPECI
23:00
V
15 °C 15 mi - Var Var 3 kt METAR CYYC 040500Z VRB03KT 15SM SKC 15/05 A3009 RMK SLP194 DENSITY ALT 4300FT
22:00
V
15 °C 15 mi - Var 000° 0 kt METAR CYYC 040400Z 00000KT 15SM SKC 15/04 A3009 RMK SLP200 DENSITY ALT 4300FT
21:00
V
16 °C 15 mi - 160° 160° 6 kt METAR CYYC 040300Z 16006KT 15SM SKC 16/04 A3009 RMK SLP201 DENSITY ALT 4400FT
20:00
V
18 °C 15 mi - 140° 140° 6 kt METAR CYYC 040200Z 14006KT 15SM SKC 18/05 A3008 RMK SLP197 DENSITY ALT 4700FT
19:00
V
21 °C 15 mi - 130° 130° 5 kt METAR CYYC 040100Z 13005KT 15SM FEW080 21/04 A3007 RMK AC1 AC TR SLP192 DENSITY ALT 5000FT
18:00
V
23 °C 15 mi - 140° 140° 7 kt METAR CYYC 040000Z 14007KT 15SM FEW080 23/05 A3008 RMK AC1 AC TR SLP191 DENSITY ALT 5200FT
17:00
V
23 °C 15 mi - 180° 180° 4 kt METAR CYYC 032300Z 18004KT 090V200 15SM FEW080 23/05 A3008 RMK AC1 AC TR SLP192 DENSITY ALT 5200FT
16:00
V
23 °C 15 mi - 150° 150° 3 kt METAR CYYC 032200Z 15003KT 120V210 15SM FEW080 23/06 A3010 RMK AC1 AC TR SLP199 DENSITY ALT 5100FT
15:00
V
22 °C 15 mi - 190° 190° 7 kt METAR CYYC 032100Z 19007KT 15SM FEW100 22/06 A3011 RMK AC1 AC TR SLP201 DENSITY ALT 5100FT
14:00
V
21 °C 15 mi - 160° 160° 7 kt METAR CYYC 032000Z 16007KT 140V210 15SM FEW100 21/06 A3013 RMK AC1 AC TR SLP207 DENSITY ALT 5000FT
13:00
V
20 °C 15 mi - 140° 140° 5 kt METAR CYYC 031900Z 14005KT 110V220 15SM FEW130 20/07 A3015 RMK AC1 AC TR SLP215 DENSITY ALT 4800FT
12:00
V
18 °C 15 mi - 200° 200° 4 kt METAR CYYC 031800Z 20004KT 15SM FEW130 18/07 A3016 RMK AC1 AC TR SLP219 DENSITY ALT 4600FT
11:00
V
16 °C 15 mi - Var Var 2 kt METAR CYYC 031700Z VRB02KT 15SM FEW130 16/07 A3017 RMK AC1 AC TR SLP227 DENSITY ALT 4300FT
10:00
V
13 °C 15 mi - Var 000° 0 kt METAR CYYC 031600Z 00000KT 15SM FEW130 13/06 A3017 RMK AC1 SLP230 DENSITY ALT 3900FT
09:00
V
9 °C 15 mi - 190° 190° 2 kt METAR CYYC 031500Z 19002KT 15SM FEW130 09/06 A3017 RMK AC2 SLP232
较旧的数据

我们和第三方通过cookies跟踪您在我们网站上的上网行为。如果您继续,我们认为您同意我们的cookie政策。 了解更多